Time;durP1;ratioP1;P1;durP2;ratioP2;P2;SDS_P1;SDS_P2;PMS_P1;PMS_P2;Temp;Humidity;BMP_temperature;BMP_pressure;BME280_temperature;BME280_humidity;BME280_pressure;Samples;Min_cycle;Max_cycle;Signal;HPM_P1;HPM_P2
2022/07/26 00:00:12;;;;;;;10.00;3.40;;;;;;;15.79;100.00;99855.44;7398969;19;20398;-58
2022/07/26 00:02:45;;;;;;;11.17;3.90;;;;;;;15.75;100.00;99861.47;7392638;19;20940;-58
2022/07/26 00:05:16;;;;;;;11.40;4.00;;;;;;;15.70;100.00;99871.00;7397783;19;20388;-58
2022/07/26 00:07:47;;;;;;;13.97;6.10;;;;;;;15.75;100.00;99866.69;7393837;19;20464;-57
2022/07/26 00:10:17;;;;;;;8.80;4.17;;;;;;;15.76;100.00;99864.97;7396825;19;20396;-58
2022/07/26 00:12:46;;;;;;;10.67;4.27;;;;;;;15.73;100.00;99871.00;7391718;19;20415;-58
2022/07/26 00:15:16;;;;;;;12.57;4.07;;;;;;;15.75;100.00;99890.09;7397372;19;20397;-58
2022/07/26 00:17:48;;;;;;;5.87;3.30;;;;;;;15.77;100.00;99893.59;7392929;19;20400;-57
2022/07/26 00:20:17;;;;;;;8.93;3.80;;;;;;;15.76;100.00;99907.44;7398124;19;20399;-57
2022/07/26 00:22:47;;;;;;;8.63;4.33;;;;;;;15.74;100.00;99919.56;7388786;19;20437;-56
2022/07/26 00:25:17;;;;;;;9.90;4.10;;;;;;;15.74;100.00;99939.50;7398114;19;20400;-57
2022/07/26 00:27:46;;;;;;;10.00;4.70;;;;;;;15.73;100.00;99945.53;7390690;19;20430;-58
2022/07/26 00:30:16;;;;;;;7.80;4.60;;;;;;;15.74;100.00;99947.31;7397878;19;20394;-57
2022/07/26 00:32:48;;;;;;;17.13;4.10;;;;;;;15.77;100.00;99952.50;7389901;19;20435;-57
2022/07/26 00:35:18;;;;;;;9.90;4.60;;;;;;;15.75;100.00;99951.63;7396749;19;20400;-57
2022/07/26 00:37:48;;;;;;;16.10;4.67;;;;;;;15.78;100.00;99951.66;7389997;19;20424;-56
2022/07/26 00:40:18;;;;;;;11.30;5.00;;;;;;;15.80;100.00;99944.75;7397554;19;20750;-58
2022/07/26 00:42:48;;;;;;;9.17;4.20;;;;;;;15.78;100.00;99947.34;7391176;19;20424;-58
2022/07/26 00:45:18;;;;;;;15.33;4.43;;;;;;;15.76;100.00;99946.47;7396105;19;20402;-56
2022/07/26 00:47:50;;;;;;;10.83;4.37;;;;;;;15.83;100.00;99943.91;7391891;19;20404;-58
2022/07/26 00:50:20;;;;;;;11.77;4.23;;;;;;;15.75;100.00;99936.88;7395222;19;20442;-57
2022/07/26 00:52:51;;;;;;;10.57;3.97;;;;;;;15.85;100.00;99921.38;7389302;19;20416;-58
2022/07/26 00:55:21;;;;;;;12.30;4.00;;;;;;;15.86;100.00;99910.09;7395944;19;20409;-58
2022/07/26 00:57:50;;;;;;;16.63;3.93;;;;;;;15.80;100.00;99893.59;7390076;19;20423;-57
2022/07/26 01:00:25;;;;;;;5.57;3.23;;;;;;;15.82;100.00;99888.41;7396935;19;20392;-56
2022/07/26 01:02:59;;;;;;;13.57;3.90;;;;;;;15.75;100.00;99894.44;7390658;19;20413;-56
2022/07/26 01:05:29;;;;;;;9.73;3.70;;;;;;;15.75;100.00;99887.47;7395440;19;20768;-57
2022/07/26 01:07:59;;;;;;;10.43;4.10;;;;;;;15.78;100.00;99891.84;7390278;19;21432;-56
2022/07/26 01:10:28;;;;;;;14.33;5.53;;;;;;;15.73;100.00;99886.63;7396742;19;20393;-58
2022/07/26 01:12:58;;;;;;;8.30;3.90;;;;;;;15.74;100.00;99887.50;7388913;19;20416;-57
2022/07/26 01:15:27;;;;;;;12.20;4.30;;;;;;;15.74;100.00;99888.34;7395029;19;20418;-57
2022/07/26 01:18:00;;;;;;;9.17;3.30;;;;;;;15.69;100.00;99902.19;7383920;19;20445;-56
2022/07/26 01:20:29;;;;;;;10.60;3.40;;;;;;;15.66;100.00;99913.44;7396720;19;20390;-56
2022/07/26 01:23:02;;;;;;;9.57;3.70;;;;;;;15.61;100.00;99921.22;7388701;19;20442;-57
2022/07/26 01:25:32;;;;;;;12.50;4.53;;;;;;;15.58;100.00;99915.13;7392728;19;20422;-56
2022/07/26 01:28:11;;;;;;;18.33;6.67;;;;;;;15.57;100.00;99915.94;7389618;19;20442;-57
2022/07/26 01:30:49;;;;;;;13.97;5.30;;;;;;;15.51;100.00;99912.47;7396190;19;20474;-54
2022/07/26 01:33:18;;;;;;;8.90;3.60;;;;;;;15.52;100.00;99921.13;7388371;19;20920;-59
2022/07/26 01:35:48;;;;;;;9.37;3.13;;;;;;;15.48;100.00;99930.63;7394537;19;20691;-55
2022/07/26 01:38:20;;;;;;;11.63;4.00;;;;;;;15.43;100.00;99932.31;7388055;19;20772;-56
2022/07/26 01:40:50;;;;;;;11.40;4.43;;;;;;;15.43;100.00;99939.25;7395608;19;20716;-56
2022/07/26 01:43:19;;;;;;;15.07;3.73;;;;;;;15.37;100.00;99946.13;7389189;19;20409;-57
2022/07/26 01:45:49;;;;;;;17.93;4.60;;;;;;;15.41;100.00;99944.44;7393927;19;20939;-57
2022/07/26 01:48:19;;;;;;;12.73;4.13;;;;;;;15.38;100.00;99954.78;7388403;19;20423;-57
2022/07/26 01:50:48;;;;;;;9.03;3.50;;;;;;;15.35;100.00;99957.38;7393765;19;20386;-56
2022/07/26 01:53:20;;;;;;;5.87;3.43;;;;;;;15.32;100.00;99968.59;7389882;19;20565;-58
2022/07/26 01:55:50;;;;;;;10.70;3.70;;;;;;;15.31;100.00;99961.66;7393558;19;20431;-56
2022/07/26 01:58:19;;;;;;;7.30;3.80;;;;;;;15.29;100.00;99972.91;7388303;19;20411;-58
2022/07/26 02:00:49;;;;;;;7.33;3.50;;;;;;;15.30;100.00;99969.44;7395089;19;20390;-57
2022/07/26 02:03:19;;;;;;;15.30;5.33;;;;;;;15.32;100.00;99972.91;7385937;19;20787;-55
2022/07/26 02:05:49;;;;;;;9.70;4.50;;;;;;;15.38;100.00;99967.78;7397071;19;21065;-57
2022/07/26 02:08:21;;;;;;;11.90;4.80;;;;;;;15.38;100.00;99960.84;7388362;19;20427;-55
2022/07/26 02:11:04;;;;;;;11.53;4.30;;;;;;;15.38;100.00;99952.19;7394965;19;20389;-57
2022/07/26 02:13:37;;;;;;;13.53;3.90;;;;;;;15.34;100.00;99955.63;7388678;19;20416;-56
2022/07/26 02:16:10;;;;;;;16.03;4.00;;;;;;;15.33;100.00;99959.09;7394360;19;20434;-56
2022/07/26 02:18:39;;;;;;;8.90;3.93;;;;;;;15.30;100.00;99957.31;7389050;19;20423;-57
2022/07/26 02:21:09;;;;;;;13.90;4.23;;;;;;;15.33;100.00;99956.50;7394416;19;20399;-55
2022/07/26 02:23:41;;;;;;;8.53;3.40;;;;;;;15.32;100.00;99957.31;7387896;19;20436;-56
2022/07/26 02:26:11;;;;;;;12.20;3.83;;;;;;;15.32;100.00;99960.81;7392209;19;20409;-57
2022/07/26 02:28:40;;;;;;;12.90;4.60;;;;;;;15.29;100.00;99958.19;7386929;19;20410;-57
2022/07/26 02:31:10;;;;;;;11.90;3.50;;;;;;;15.32;100.00;99957.31;7395224;19;20394;-52
2022/07/26 02:33:43;;;;;;;10.30;3.87;;;;;;;15.34;100.00;99961.69;7386060;19;20455;-55
2022/07/26 02:36:13;;;;;;;9.23;3.73;;;;;;;15.36;100.00;99970.38;7392368;19;20417;-57
2022/07/26 02:38:45;;;;;;;14.33;3.90;;;;;;;15.38;100.00;99965.19;7386127;19;20420;-56
2022/07/26 02:41:14;;;;;;;18.23;3.80;;;;;;;15.43;100.00;99960.03;7394140;19;20387;-56
2022/07/26 02:43:44;;;;;;;12.17;3.93;;;;;;;15.43;100.00;99962.66;7386904;19;20420;-56
2022/07/26 02:46:13;;;;;;;13.07;4.20;;;;;;;15.39;100.00;99959.16;7392195;19;20486;-56
2022/07/26 02:48:43;;;;;;;9.73;3.50;;;;;;;15.40;100.00;99966.09;7387743;19;20414;-56
2022/07/26 02:51:12;;;;;;;12.60;3.30;;;;;;;15.44;100.00;99966.97;7393563;19;20386;-57
2022/07/26 02:53:45;;;;;;;9.93;3.90;;;;;;;15.40;100.00;99971.28;7383975;19;20437;-56
2022/07/26 02:56:14;;;;;;;7.90;3.57;;;;;;;15.46;100.00;99971.34;7392197;19;20411;-57
2022/07/26 02:58:44;;;;;;;8.53;4.00;;;;;;;15.44;100.00;99980.81;7387130;19;20397;-57
2022/07/26 03:01:14;;;;;;;14.37;4.03;;;;;;;15.46;100.00;99986.03;7393373;19;20463;-56
2022/07/26 03:03:43;;;;;;;8.30;3.50;;;;;;;15.49;100.00;99992.16;7386317;19;20812;-54
2022/07/26 03:06:19;;;;;;;9.03;3.63;;;;;;;15.55;100.00;99993.06;7391983;19;21157;-56
2022/07/26 03:08:51;;;;;;;8.27;4.00;;;;;;;15.58;100.00;99991.34;7386439;19;20422;-56
2022/07/26 03:11:21;;;;;;;14.10;3.50;;;;;;;15.57;100.00;99999.13;7393163;19;20719;-58
2022/07/26 03:13:50;;;;;;;14.63;3.90;;;;;;;15.57;100.00;99999.13;7387114;19;20441;-57
2022/07/26 03:16:20;;;;;;;11.40;3.60;;;;;;;15.57;100.00;99996.53;7398689;19;20771;-58
2022/07/26 03:18:57;;;;;;;10.97;3.60;;;;;;;15.62;100.00;100000.06;7399450;19;20440;-56
2022/07/26 03:21:26;;;;;;;12.13;3.83;;;;;;;15.67;100.00;100000.97;7401011;19;20468;-56
2022/07/26 03:23:58;;;;;;;11.10;4.00;;;;;;;15.71;100.00;100004.47;7393244;19;20424;-57
2022/07/26 03:26:28;;;;;;;15.60;4.03;;;;;;;15.66;100.00;100007.03;7398629;19;20413;-58
2022/07/26 03:28:58;;;;;;;15.33;3.83;;;;;;;15.69;100.00;100008.78;7400177;19;20460;-57
2022/07/26 03:31:27;;;;;;;13.03;3.77;;;;;;;15.69;100.00;100009.66;7400335;19;20395;-57
2022/07/26 03:33:57;;;;;;;8.00;3.17;;;;;;;15.70;100.00;100015.72;7396355;19;20458;-57
2022/07/26 03:36:31;;;;;;;15.07;4.33;;;;;;;15.75;100.00;100014.06;7392399;19;20415;-63
2022/07/26 03:39:03;;;;;;;9.20;3.40;;;;;;;15.79;100.00;100015.81;7399170;19;20387;-56
2022/07/26 03:41:33;;;;;;;14.37;4.07;;;;;;;15.77;100.00;100020.13;7394152;19;20388;-57
2022/07/26 03:44:02;;;;;;;12.03;3.67;;;;;;;15.74;100.00;100017.50;7398209;19;20399;-57
2022/07/26 03:46:32;;;;;;;11.40;3.87;;;;;;;15.77;100.00;100035.72;7392456;19;20414;-57
2022/07/26 03:49:02;;;;;;;7.60;3.60;;;;;;;15.80;100.00;100034.03;7398962;19;20465;-57
2022/07/26 03:51:32;;;;;;;13.33;3.90;;;;;;;15.82;100.00;100033.16;7393296;19;20409;-57
2022/07/26 03:54:05;;;;;;;12.57;4.00;;;;;;;15.90;100.00;100034.97;7395470;19;20461;-55
2022/07/26 03:56:32;;;;;;;13.03;3.70;;;;;;;15.93;100.00;100048.06;7392158;19;20419;-57
2022/07/26 03:59:04;;;;;;;11.40;4.20;;;;;;;15.93;100.00;100047.16;7398590;19;20739;-57
2022/07/26 04:01:34;;;;;;;15.50;4.23;;;;;;;15.93;100.00;100049.78;7394005;19;20403;-57
2022/07/26 04:04:04;;;;;;;16.73;4.40;;;;;;;15.91;100.00;100067.06;7397608;19;20401;-57
2022/07/26 04:06:37;;;;;;;19.33;4.80;;;;;;;15.93;100.00;100086.19;7392286;19;20430;-54
2022/07/26 04:09:10;;;;;;;18.77;5.03;;;;;;;15.89;100.00;100097.41;7398364;19;20386;-57
2022/07/26 04:11:39;;;;;;;13.57;5.40;;;;;;;15.62;100.00;100096.25;7392187;19;20755;-57
2022/07/26 04:14:09;;;;;;;14.00;5.17;;;;;;;15.40;100.00;100127.22;7395500;19;20389;-58
2022/07/26 04:16:39;;;;;;;11.63;4.80;;;;;;;15.32;100.00;100139.22;7394410;19;20430;-56
2022/07/26 04:19:12;;;;;;;11.50;4.00;;;;;;;15.18;100.00;100146.88;7398609;19;20733;-57
2022/07/26 04:21:42;;;;;;;10.43;5.17;;;;;;;15.15;100.00;100152.91;7392932;19;20398;-58
2022/07/26 04:24:14;;;;;;;13.93;5.23;;;;;;;15.03;100.00;100173.50;7397214;19;20391;-58
2022/07/26 04:26:45;;;;;;;10.00;4.80;;;;;;;14.86;100.00;100192.31;7389558;19;20419;-58
2022/07/26 04:29:14;;;;;;;16.17;4.77;;;;;;;14.68;100.00;100198.06;7398465;19;20400;-58
2022/07/26 04:31:44;;;;;;;6.87;4.30;;;;;;;14.58;100.00;100208.28;7392249;19;20739;-59
2022/07/26 04:34:13;;;;;;;10.70;5.07;;;;;;;14.55;100.00;100217.75;7395448;19;20394;-57
2022/07/26 04:36:43;;;;;;;6.93;4.73;;;;;;;14.50;100.00;100214.22;7389477;19;20420;-59
2022/07/26 04:39:15;;;;;;;7.67;3.93;;;;;;;14.41;100.00;100223.59;7397312;19;20398;-59
2022/07/26 04:41:45;;;;;;;7.10;4.63;;;;;;;14.40;100.00;100219.25;7392067;19;20400;-60
2022/07/26 04:44:14;;;;;;;7.83;4.87;;;;;;;14.42;100.00;100220.13;7396489;19;20404;-59
2022/07/26 04:46:44;;;;;;;6.20;4.83;;;;;;;14.40;100.00;100177.72;7390159;19;20434;-59
2022/07/26 04:49:14;;;;;;;11.13;4.73;;;;;;;14.38;100.00;100168.16;7397128;19;20391;-59
2022/07/26 04:51:44;;;;;;;11.40;5.07;;;;;;;14.42;100.00;100160.44;7390861;19;20398;-59
2022/07/26 04:54:19;;;;;;;6.50;4.43;;;;;;;14.35;100.00;100150.81;7394653;19;20390;-59
2022/07/26 04:56:49;;;;;;;11.10;5.00;;;;;;;14.32;100.00;100132.63;7390457;19;20490;-59
2022/07/26 04:59:19;;;;;;;9.57;4.73;;;;;;;14.31;100.00;100118.75;7397232;19;20739;-59
2022/07/26 05:01:50;;;;;;;10.97;6.90;;;;;;;14.31;100.00;100121.34;7391353;19;20385;-59
2022/07/26 05:04:20;;;;;;;17.33;6.70;;;;;;;14.32;100.00;100117.06;7396243;19;20816;-59
2022/07/26 05:06:49;;;;;;;8.30;4.97;;;;;;;14.35;100.00;100111.91;7389564;19;20419;-59
2022/07/26 05:09:21;;;;;;;10.80;6.00;;;;;;;14.35;100.00;100098.06;7396842;19;20393;-59
2022/07/26 05:11:51;;;;;;;7.93;4.87;;;;;;;14.39;100.00;100100.72;7389839;19;20472;-59
2022/07/26 05:14:21;;;;;;;8.60;5.20;;;;;;;14.39;100.00;100103.31;7394721;19;20462;-58
2022/07/26 05:16:51;;;;;;;9.20;5.13;;;;;;;14.39;100.00;100085.16;7388656;19;20424;-60
2022/07/26 05:19:22;;;;;;;7.20;4.60;;;;;;;14.38;100.00;100079.94;7396733;19;20447;-59
2022/07/26 05:21:52;;;;;;;8.73;5.27;;;;;;;14.42;100.00;100072.22;7391098;19;20428;-60
2022/07/26 05:24:24;;;;;;;5.50;4.60;;;;;;;14.41;100.00;100070.47;7395470;19;21005;-59
2022/07/26 05:26:53;;;;;;;10.30;4.60;;;;;;;14.44;100.00;100064.47;7387550;19;20744;-59
2022/07/26 05:29:26;;;;;;;6.20;4.40;;;;;;;14.45;100.00;100064.50;7398791;19;20419;-59
2022/07/26 05:31:56;;;;;;;6.20;3.97;;;;;;;14.41;100.00;100070.47;7389394;19;20423;-59
2022/07/26 05:34:26;;;;;;;5.73;4.77;;;;;;;14.52;100.00;100061.97;7393818;19;20376;-59
2022/07/26 05:36:55;;;;;;;10.10;5.53;;;;;;;14.53;100.00;100056.81;7386851;19;20413;-59
2022/07/26 05:39:27;;;;;;;9.63;5.73;;;;;;;14.56;100.00;100068.97;7395749;19;20389;-60
2022/07/26 05:41:57;;;;;;;8.73;5.43;;;;;;;14.62;100.00;100056.09;7389129;19;20420;-60
2022/07/26 05:44:26;;;;;;;8.00;5.43;;;;;;;14.68;100.00;100061.31;7394989;19;20414;-60
2022/07/26 05:46:58;;;;;;;9.93;5.30;;;;;;;14.84;100.00;100065.06;7388569;19;20402;-60
2022/07/26 05:49:28;;;;;;;7.27;5.50;;;;;;;14.93;100.00;100066.88;7395676;19;20385;-60
2022/07/26 05:52:09;;;;;;;10.87;7.07;;;;;;;15.00;100.00;100070.44;7387563;19;20419;-59
2022/07/26 05:54:41;;;;;;;7.10;4.80;;;;;;;14.89;100.00;100067.72;7393584;19;20727;-59
2022/07/26 05:57:10;;;;;;;7.70;5.67;;;;;;;14.87;100.00;100064.19;7387635;19;20928;-60
2022/07/26 05:59:40;;;;;;;10.10;5.87;;;;;;;14.90;100.00;100078.97;7398974;19;20388;-60
2022/07/26 06:02:09;;;;;;;7.20;5.40;;;;;;;14.88;100.00;100317.88;7388485;19;20421;-59
2022/07/26 06:04:39;;;;;;;10.60;5.77;;;;;;;14.89;100.00;100327.44;7394222;19;20400;-59
2022/07/26 06:07:09;;;;;;;7.70;5.50;;;;;;;14.90;100.00;100326.56;7387290;19;21276;-60
2022/07/26 06:09:41;;;;;;;16.60;6.80;;;;;;;14.97;100.00;100345.72;7394893;19;20398;-59
2022/07/26 06:12:11;;;;;;;8.77;5.90;;;;;;;15.06;100.00;100729.50;7387623;19;21398;-59
2022/07/26 06:14:41;;;;;;;12.80;6.27;;;;;;;15.09;100.00;100714.00;7397017;19;20918;-60
2022/07/26 06:17:10;;;;;;;11.23;6.73;;;;;;;15.10;100.00;100715.75;7386611;19;20493;-59
2022/07/26 06:19:40;;;;;;;9.73;5.30;;;;;;;15.17;100.00;100728.03;7399290;19;20400;-59
2022/07/26 06:22:16;;;;;;;8.63;6.07;;;;;;;15.21;100.00;100718.59;7388618;19;20415;-59
2022/07/26 06:24:48;;;;;;;10.73;5.73;;;;;;;15.22;100.00;100723.81;7394079;19;21006;-59
2022/07/26 06:27:17;;;;;;;11.10;5.90;;;;;;;15.30;100.00;100725.72;7387067;19;20775;-60
2022/07/26 06:29:47;;;;;;;7.87;4.67;;;;;;;15.28;100.00;100730.88;7394477;19;20906;-59
2022/07/26 06:32:17;;;;;;;7.40;4.43;;;;;;;15.27;100.00;100728.25;7387736;19;20414;-59
2022/07/26 06:34:47;;;;;;;12.80;4.27;;;;;;;15.27;100.00;100738.66;7392795;19;20934;-60
2022/07/26 06:37:16;;;;;;;5.87;3.60;;;;;;;15.29;100.00;100735.25;7385784;19;20833;-59
2022/07/26 06:39:48;;;;;;;9.13;4.57;;;;;;;15.30;100.00;100738.69;7393964;19;20393;-59
2022/07/26 06:42:18;;;;;;;10.87;4.37;;;;;;;15.28;100.00;100737.81;7388037;19;20414;-59
2022/07/26 06:44:47;;;;;;;10.43;4.43;;;;;;;15.31;100.00;100751.75;7393056;19;20402;-59
2022/07/26 06:47:17;;;;;;;14.80;4.37;;;;;;;15.33;100.00;100743.97;7386088;19;20410;-59
2022/07/26 06:49:46;;;;;;;15.63;4.73;;;;;;;15.31;100.00;100736.16;7392406;19;20389;-59
2022/07/26 06:52:16;;;;;;;8.27;3.43;;;;;;;15.28;100.00;100754.25;7387500;19;20415;-57
2022/07/26 06:54:48;;;;;;;9.77;3.00;;;;;;;15.11;100.00;100754.78;7392026;19;20465;-60
2022/07/26 06:57:18;;;;;;;7.40;2.70;;;;;;;14.92;100.00;100765.56;7385522;19;20946;-59
2022/07/26 06:59:47;;;;;;;10.87;3.37;;;;;;;15.02;100.00;100783.13;7393517;19;21374;-59
2022/07/26 07:02:17;;;;;;;9.93;3.57;;;;;;;14.91;100.00;100801.03;7385379;19;20813;-59
2022/07/26 07:04:47;;;;;;;4.67;2.57;;;;;;;14.96;100.00;100796.84;7392414;19;20923;-59
2022/07/26 07:07:16;;;;;;;7.67;3.23;;;;;;;14.92;100.00;100800.19;7386304;19;20410;-59
2022/07/26 07:09:48;;;;;;;4.73;2.30;;;;;;;14.89;100.00;100809.63;7393286;19;20522;-59
2022/07/26 07:12:18;;;;;;;3.57;2.60;;;;;;;14.88;100.00;100811.38;7386735;19;20475;-59
2022/07/26 07:14:48;;;;;;;13.73;3.10;;;;;;;14.86;100.00;100820.81;7391946;19;20388;-59
2022/07/26 07:17:20;;;;;;;5.83;2.57;;;;;;;14.88;100.00;100823.47;7383848;19;20494;-59
2022/07/26 07:19:50;;;;;;;9.87;2.03;;;;;;;14.98;100.00;100823.72;7393023;19;20454;-59
2022/07/26 07:22:19;;;;;;;13.83;2.70;;;;;;;14.87;100.00;100819.13;7386051;19;20419;-59
2022/07/26 07:24:52;;;;;;;6.73;1.93;;;;;;;14.99;100.00;100828.09;7391747;19;20408;-59
2022/07/26 07:27:21;;;;;;;4.23;1.97;;;;;;;14.90;100.00;100817.47;7384312;19;20418;-59
2022/07/26 07:29:51;;;;;;;3.93;1.80;;;;;;;14.95;100.00;100818.47;7392442;19;20502;-59
2022/07/26 07:32:20;;;;;;;7.20;1.67;;;;;;;14.90;100.00;100826.97;7384738;19;20445;-60
2022/07/26 07:34:53;;;;;;;7.83;1.70;;;;;;;14.94;100.00;100828.81;7391217;19;20418;-59
2022/07/26 07:37:22;;;;;;;6.00;1.93;;;;;;;14.84;100.00;100836.41;7383394;19;20434;-59
2022/07/26 07:39:55;;;;;;;6.83;3.03;;;;;;;14.65;100.00;100836.69;7392174;19;20476;-61
2022/07/26 07:42:27;;;;;;;5.70;1.90;;;;;;;14.58;100.00;100841.72;7387627;19;20761;-59
2022/07/26 07:44:57;;;;;;;5.87;2.20;;;;;;;14.53;100.00;100852.84;7391557;19;20504;-59
2022/07/26 07:47:26;;;;;;;6.50;2.47;;;;;;;14.57;100.00;100859.88;7385091;19;20423;-59
2022/07/26 07:49:56;;;;;;;4.53;2.23;;;;;;;14.50;100.00;100863.16;7392099;19;20947;-59
2022/07/26 07:52:25;;;;;;;6.63;2.60;;;;;;;14.55;100.00;100859.84;7385107;19;20409;-59
2022/07/26 07:54:58;;;;;;;8.50;2.27;;;;;;;14.68;100.00;100865.34;7390730;19;20392;-59
2022/07/26 07:57:47;;;;;;;4.17;1.83;;;;;;;14.70;100.00;100861.06;7384383;19;20423;-59
2022/07/26 08:00:18;;;;;;;7.80;2.47;;;;;;;14.80;100.00;100863.13;7396049;19;20389;-59
2022/07/26 08:02:56;;;;;;;3.93;1.63;;;;;;;14.90;100.00;100842.56;7392076;19;20450;-59
2022/07/26 08:05:25;;;;;;;5.47;2.03;;;;;;;14.87;100.00;100832.97;7397801;19;20395;-59
2022/07/26 08:07:55;;;;;;;4.23;1.57;;;;;;;14.99;100.00;100835.88;7391781;19;20411;-59
2022/07/26 08:10:28;;;;;;;9.20;2.20;;;;;;;15.10;100.00;100819.69;7398951;19;20764;-59
2022/07/26 08:12:57;;;;;;;4.90;1.70;;;;;;;15.11;100.00;100817.13;7392827;19;20990;-59
2022/07/26 08:15:27;;;;;;;5.73;1.20;;;;;;;15.09;100.00;100812.72;7397416;19;20414;-59
2022/07/26 08:17:59;;;;;;;3.97;1.57;;;;;;;15.04;100.00;100768.47;7391480;19;20415;-59
2022/07/26 08:20:29;;;;;;;13.97;4.70;;;;;;;15.37;100.00;100774.38;7398510;19;20394;-59
2022/07/26 08:22:59;;;;;;;3.77;1.50;;;;;;;15.47;100.00;100781.53;7393502;19;20421;-59
2022/07/26 08:25:31;;;;;;;39.17;24.80;;;;;;;15.45;100.00;100778.03;7397036;19;20398;-59
2022/07/26 08:28:01;;;;;;;2.87;1.10;;;;;;;14.92;100.00;100743.06;7391741;19;20423;-59
2022/07/26 08:30:32;;;;;;;3.20;1.17;;;;;;;14.45;100.00;100658.84;7398146;19;20385;-59
2022/07/26 08:33:02;;;;;;;2.67;1.53;;;;;;;14.38;100.00;100672.50;7391761;19;20419;-59
2022/07/26 08:35:32;;;;;;;4.50;1.10;;;;;;;14.18;100.00;100670.31;7396648;19;20795;-59
2022/07/26 08:38:01;;;;;;;5.10;1.70;;;;;;;14.49;100.00;100695.25;7389274;19;20493;-59
2022/07/26 08:40:34;;;;;;;2.40;0.93;;;;;;;14.48;100.00;100693.50;7397575;19;20388;-59
2022/07/26 08:43:04;;;;;;;7.03;2.60;;;;;;;14.47;100.00;100639.81;7389943;19;20403;-60
2022/07/26 08:45:33;;;;;;;2.83;1.50;;;;;;;14.46;100.00;100597.41;7396413;19;20771;-59
2022/07/26 08:48:03;;;;;;;3.40;1.20;;;;;;;14.63;100.00;100595.22;7391041;19;20775;-59
2022/07/26 08:50:46;;;;;;;7.17;3.30;;;;;;;14.83;100.00;100561.06;7397635;19;20455;-59
2022/07/26 08:53:16;;;;;;;5.40;1.10;;;;;;;15.01;100.00;100546.69;7389740;19;20414;-59
2022/07/26 08:55:48;;;;;;;5.40;1.07;;;;;;;14.92;100.00;100539.59;7395909;19;20499;-59
2022/07/26 08:58:39;;;;;;;5.90;1.23;;;;;;;14.80;100.00;100529.81;7390668;19;20414;-59
2022/07/26 09:01:12;;;;;;;2.17;0.90;;;;;;;14.57;100.00;100510.28;7397282;19;20418;-59
2022/07/26 09:03:43;;;;;;;5.47;1.50;;;;;;;14.55;100.00;100503.28;7387408;19;20762;-59
2022/07/26 09:06:18;;;;;;;6.60;1.63;;;;;;;14.55;100.00;100499.00;7395157;19;20492;-59
2022/07/26 09:08:51;;;;;;;3.83;1.20;;;;;;;14.50;100.00;100536.09;7390645;19;21064;-59
2022/07/26 09:11:34;;;;;;;3.60;1.27;;;;;;;14.38;100.00;100527.19;7395588;19;20810;-59
2022/07/26 09:14:06;;;;;;;4.53;1.43;;;;;;;14.33;100.00;100528.78;7395716;19;20996;-59
2022/07/26 09:16:35;;;;;;;5.00;1.50;;;;;;;14.47;100.00;100544.69;7387983;19;20424;-59
2022/07/26 09:19:17;;;;;;;5.60;1.20;;;;;;;14.54;100.00;100553.47;7396239;19;20405;-59
2022/07/26 09:21:48;;;;;;;3.33;1.40;;;;;;;14.87;100.00;100562.84;7389972;19;20459;-59
2022/07/26 09:24:31;;;;;;;2.63;1.27;;;;;;;15.11;100.00;100561.59;7395472;19;20386;-59
2022/07/26 09:27:05;;;;;;;5.57;1.37;;;;;;;15.29;100.00;100542.91;7388347;19;20424;-59
2022/07/26 09:29:46;;;;;;;8.10;1.10;;;;;;;15.24;100.00;100515.97;7396329;19;20470;-59
2022/07/26 09:32:18;;;;;;;5.33;1.20;;;;;;;15.46;100.00;100511.13;7390403;19;20489;-59
2022/07/26 09:34:49;;;;;;;6.00;1.30;;;;;;;15.17;100.00;100519.28;7395053;19;20394;-59
2022/07/26 09:37:35;;;;;;;7.87;0.90;;;;;;;14.64;100.00;100524.28;7389461;19;20768;-59
2022/07/26 09:40:07;;;;;;;5.57;1.20;;;;;;;14.65;100.00;100510.44;7396164;19;20399;-59
2022/07/26 09:42:40;;;;;;;8.27;1.37;;;;;;;14.89;100.00;100518.72;7389217;19;20420;-59
2022/07/26 09:45:17;;;;;;;4.23;1.20;;;;;;;15.17;100.00;100514.09;7394942;19;20420;-59
2022/07/26 09:47:47;;;;;;;6.43;1.57;;;;;;;15.12;100.00;100516.59;7388725;19;20410;-59
2022/07/26 09:50:17;;;;;;;4.77;1.30;;;;;;;14.97;100.00;100517.16;7395715;19;20391;-59
2022/07/26 09:53:05;;;;;;;4.90;1.40;;;;;;;14.96;100.00;100510.22;7389669;19;20413;-58
2022/07/26 09:55:36;;;;;;;5.77;1.30;;;;;;;15.38;100.00;100503.19;7394087;19;20407;-59
2022/07/26 09:58:17;;;;;;;4.53;1.40;;;;;;;15.48;100.00;100492.13;7387622;19;20416;-59
2022/07/26 10:00:47;;;;;;;24.67;7.33;;;;;;;15.31;100.00;100499.63;7395238;19;20384;-59
2022/07/26 10:03:17;;;;;;;5.90;1.70;;;;;;;15.01;100.00;100508.59;7387993;19;20418;-59
2022/07/26 10:05:46;;;;;;;3.70;1.10;;;;;;;14.93;100.00;100505.81;7393853;19;20424;-59
2022/07/26 10:08:16;;;;;;;11.23;3.00;;;;;;;14.73;100.00;100508.00;7387927;19;20459;-59
2022/07/26 10:10:48;;;;;;;8.07;2.30;;;;;;;14.77;100.00;100512.44;7398920;19;20401;-59
2022/07/26 10:13:20;;;;;;;7.57;1.20;;;;;;;14.74;100.00;100508.88;7389935;19;20415;-59
2022/07/26 10:15:52;;;;;;;16.83;4.67;;;;;;;14.83;100.00;100502.16;7397764;19;20445;-59
2022/07/26 10:18:49;;;;;;;5.00;0.87;;;;;;;15.02;100.00;100501.69;7386950;19;20425;-59
2022/07/26 10:21:28;;;;;;;6.97;1.00;;;;;;;15.03;100.00;100504.28;7394503;19;20413;-59
2022/07/26 10:23:59;;;;;;;7.33;1.10;;;;;;;15.18;100.00;100503.69;7390792;19;20424;-59
2022/07/26 10:26:44;;;;;;;6.87;1.73;;;;;;;15.37;100.00;100511.84;7393163;19;20412;-59
2022/07/26 10:29:27;;;;;;;11.70;2.00;;;;;;;15.16;100.00;100515.81;7393653;19;20417;-60
2022/07/26 10:32:16;;;;;;;5.97;1.37;;;;;;;15.22;100.00;100515.91;7387782;19;20417;-59
2022/07/26 10:34:46;;;;;;;6.60;1.90;;;;;;;15.03;100.00;100519.00;7393582;19;20750;-59
2022/07/26 10:37:26;;;;;;;4.53;1.17;;;;;;;15.23;100.00;100520.25;7385118;19;20411;-59
2022/07/26 10:40:24;;;;;;;16.20;4.40;;;;;;;15.40;100.00;100517.13;7393455;19;20394;-59
2022/07/26 10:42:53;;;;;;;10.23;2.20;;;;;;;15.45;100.00;100525.88;7386740;19;20836;-59
2022/07/26 10:45:26;;;;;;;3.83;1.30;;;;;;;15.56;100.00;100532.97;7392734;19;20434;-59
2022/07/26 10:48:13;;;;;;;4.20;1.03;;;;;;;15.56;100.00;100570.25;7386837;19;20415;-59
2022/07/26 10:50:44;;;;;;;17.47;3.10;;;;;;;15.65;100.00;100612.03;7393801;19;20386;-59
2022/07/26 10:53:19;;;;;;;4.57;1.40;;;;;;;15.86;100.00;100620.19;7387580;19;20412;-59
2022/07/26 10:55:51;;;;;;;3.80;1.00;;;;;;;16.01;100.00;100666.47;7391757;19;20404;-59
2022/07/26 10:58:21;;;;;;;7.97;1.70;;;;;;;16.25;100.00;100660.78;7387135;19;20431;-59
2022/07/26 11:01:01;;;;;;;6.10;1.43;;;;;;;16.60;100.00;100657.00;7393248;19;20375;-59
2022/07/26 11:03:38;;;;;;;7.80;1.47;;;;;;;16.66;100.00;100658.84;7387432;19;20415;-59
2022/07/26 11:06:15;;;;;;;7.23;1.80;;;;;;;16.44;100.00;100677.59;7391524;19;20399;-59
2022/07/26 11:08:45;;;;;;;20.00;10.43;;;;;;;16.08;100.00;100691.72;7385691;19;20428;-59
2022/07/26 11:11:29;;;;;;;17.20;1.80;;;;;;;15.79;100.00;100682.50;7392305;19;20379;-59
2022/07/26 11:14:09;;;;;;;7.40;2.83;;;;;;;15.85;100.00;100660.91;7391446;19;20415;-59
2022/07/26 11:16:44;;;;;;;15.43;1.93;;;;;;;15.98;100.00;100675.09;7385916;19;20989;-59
2022/07/26 11:19:15;;;;;;;10.07;1.90;;;;;;;16.04;100.00;100661.28;7393112;19;20461;-58
2022/07/26 11:21:46;;;;;;;20.53;3.70;;;;;;;16.25;100.00;100663.38;7386920;19;20392;-59
2022/07/26 11:24:16;;;;;;;13.27;3.60;;;;;;;16.57;100.00;100655.22;7391230;19;20458;-59
2022/07/26 11:26:47;;;;;;;8.80;2.47;;;;;;;16.68;100.00;100664.94;7384949;19;20421;-59
2022/07/26 11:29:16;;;;;;;8.73;1.90;;;;;;;16.75;100.00;100695.44;7392407;19;20399;-58
2022/07/26 11:31:53;;;;;;;8.07;1.60;;;;;;;16.98;100.00;100744.41;7386212;19;20399;-59
2022/07/26 11:34:36;;;;;;;9.37;2.00;;;;;;;17.15;100.00;100749.91;7393791;19;20398;-58
2022/07/26 11:37:07;;;;;;;9.93;2.23;;;;;;;16.88;100.00;100775.53;7392630;19;21556;-58